createdAt,value
2017-12-20T00:00:40.961Z,99.90
2017-12-20T00:03:08.577Z,99.90
2017-12-20T00:05:36.246Z,99.90
2017-12-20T00:08:04.250Z,99.90
2017-12-20T00:10:32.662Z,99.90
2017-12-20T00:13:00.294Z,99.90
2017-12-20T00:15:28.079Z,99.90
2017-12-20T00:17:55.718Z,99.90
2017-12-20T00:20:23.342Z,99.90
2017-12-20T00:22:51.032Z,99.90
2017-12-20T00:25:18.669Z,99.90
2017-12-20T00:27:46.294Z,99.90
2017-12-20T00:30:13.958Z,99.90
2017-12-20T00:32:41.630Z,99.90
2017-12-20T00:35:10.051Z,99.90
2017-12-20T00:37:37.717Z,99.90
2017-12-20T00:40:05.348Z,99.90
2017-12-20T00:42:33.001Z,99.90
2017-12-20T00:45:00.622Z,99.90
2017-12-20T00:47:28.269Z,99.90
2017-12-20T00:49:55.884Z,99.90
2017-12-20T00:52:23.522Z,99.90
2017-12-20T00:54:51.952Z,99.90
2017-12-20T00:57:19.575Z,99.90
2017-12-20T00:59:47.240Z,99.90
2017-12-20T01:02:14.916Z,99.90
2017-12-20T01:04:42.554Z,99.90
2017-12-20T01:07:10.210Z,99.90
2017-12-20T01:09:38.598Z,99.90
2017-12-20T01:12:06.253Z,99.90
2017-12-20T01:14:33.909Z,99.90
2017-12-20T01:17:01.593Z,99.90
2017-12-20T01:19:29.234Z,99.90
2017-12-20T01:21:57.047Z,99.90
2017-12-20T01:24:24.691Z,99.90
2017-12-20T01:26:52.315Z,99.90
2017-12-20T01:29:19.950Z,99.90
2017-12-20T01:31:47.699Z,99.90
2017-12-20T01:34:17.722Z,99.90
2017-12-20T01:36:45.374Z,99.90
2017-12-20T01:39:12.993Z,99.90
2017-12-20T01:41:40.621Z,99.90
2017-12-20T01:44:08.280Z,99.90
2017-12-20T01:46:35.893Z,99.90
2017-12-20T01:49:03.546Z,99.90
2017-12-20T01:51:31.168Z,99.90
2017-12-20T01:53:58.797Z,99.90
2017-12-20T01:56:26.477Z,99.90
2017-12-20T01:58:54.094Z,99.90
2017-12-20T02:01:21.753Z,99.90
2017-12-20T02:03:49.377Z,99.90
2017-12-20T02:06:17.882Z,99.90
2017-12-20T02:08:45.533Z,99.90
2017-12-20T02:11:13.165Z,99.90
2017-12-20T02:13:40.821Z,99.90
2017-12-20T02:16:09.257Z,99.90
2017-12-20T02:18:37.052Z,99.90
2017-12-20T02:21:04.713Z,99.90
2017-12-20T02:23:32.386Z,99.90
2017-12-20T02:26:00.806Z,99.90
2017-12-20T02:28:28.436Z,99.90
2017-12-20T02:30:56.132Z,99.90
2017-12-20T02:33:30.558Z,99.90
2017-12-20T02:35:58.178Z,99.90
2017-12-20T02:38:38.453Z,99.90
2017-12-20T02:41:08.588Z,99.90
2017-12-20T02:43:37.117Z,99.90
2017-12-20T02:46:04.773Z,99.90
2017-12-20T02:48:32.409Z,99.90
2017-12-20T02:51:00.826Z,99.90
2017-12-20T02:53:28.456Z,99.90
2017-12-20T02:55:56.097Z,99.90
2017-12-20T02:58:23.784Z,99.90
2017-12-20T03:00:51.444Z,99.90
2017-12-20T03:03:19.869Z,99.90
2017-12-20T03:05:47.609Z,99.90
2017-12-20T03:08:15.285Z,99.90
2017-12-20T03:10:43.725Z,99.90
2017-12-20T03:13:11.346Z,99.90
2017-12-20T03:15:38.998Z,99.90
2017-12-20T03:18:06.743Z,99.90
2017-12-20T03:20:34.370Z,99.90
2017-12-20T03:23:02.794Z,99.90
2017-12-20T03:25:30.410Z,99.90
2017-12-20T03:27:58.103Z,99.90
2017-12-20T03:30:25.729Z,99.90
2017-12-20T03:32:53.351Z,99.90
2017-12-20T03:35:21.007Z,99.90
2017-12-20T03:37:48.666Z,99.90
2017-12-20T03:40:16.314Z,99.90
2017-12-20T03:42:43.935Z,99.90
2017-12-20T03:45:11.554Z,99.90
2017-12-20T03:47:40.012Z,99.90
2017-12-20T03:50:08.387Z,99.90
2017-12-20T03:52:36.221Z,99.90
2017-12-20T03:55:03.848Z,99.90
2017-12-20T03:57:31.467Z,99.90
2017-12-20T03:59:59.129Z,99.90
2017-12-20T04:02:27.102Z,99.90
2017-12-20T04:04:54.760Z,99.90
2017-12-20T04:07:23.157Z,99.90
2017-12-20T04:09:50.869Z,99.90
2017-12-20T04:12:18.533Z,99.90
2017-12-20T04:14:47.380Z,99.90
2017-12-20T04:17:15.033Z,99.90
2017-12-20T04:19:42.655Z,99.90
2017-12-20T04:22:10.278Z,99.90
2017-12-20T04:24:38.114Z,99.90
2017-12-20T04:27:05.734Z,99.90
2017-12-20T04:29:34.163Z,99.90
2017-12-20T04:32:01.777Z,99.90
2017-12-20T04:34:29.396Z,99.90
2017-12-20T04:36:57.147Z,99.90
2017-12-20T04:39:25.539Z,99.90
2017-12-20T04:41:53.200Z,99.90
2017-12-20T04:44:20.849Z,99.90
2017-12-20T04:46:48.475Z,99.90
2017-12-20T04:49:16.233Z,99.90
2017-12-20T04:51:43.866Z,99.90
2017-12-20T04:54:11.526Z,99.90
2017-12-20T04:56:39.153Z,99.90
2017-12-20T04:59:06.893Z,99.90
2017-12-20T05:01:35.305Z,99.90
2017-12-20T05:04:03.046Z,99.90
2017-12-20T05:06:30.702Z,99.90
2017-12-20T05:08:58.319Z,99.90
2017-12-20T05:11:26.055Z,99.90
2017-12-20T05:13:53.830Z,99.90
2017-12-20T05:16:25.849Z,99.90
2017-12-20T05:18:53.587Z,99.90
2017-12-20T05:21:21.980Z,99.90
2017-12-20T05:23:49.598Z,99.90
2017-12-20T05:26:18.152Z,99.90
2017-12-20T05:28:46.719Z,99.90
2017-12-20T05:31:14.381Z,99.90
2017-12-20T05:33:42.846Z,99.90
2017-12-20T05:36:11.249Z,99.90
2017-12-20T05:38:38.943Z,99.90
2017-12-20T05:41:06.638Z,99.90
2017-12-20T05:43:34.357Z,99.90
2017-12-20T05:46:01.966Z,99.90
2017-12-20T05:48:29.607Z,99.90
2017-12-20T05:50:57.266Z,99.90
2017-12-20T05:53:24.892Z,99.90
2017-12-20T05:55:52.550Z,99.90
2017-12-20T05:58:20.177Z,99.90
2017-12-20T06:00:47.941Z,99.90
2017-12-20T06:03:15.594Z,99.90
2017-12-20T06:05:43.213Z,99.90
2017-12-20T06:08:10.901Z,99.90
2017-12-20T06:10:38.606Z,99.90
2017-12-20T06:13:06.246Z,99.90
2017-12-20T06:15:33.904Z,99.90
2017-12-20T06:18:01.517Z,99.90
2017-12-20T06:20:29.169Z,99.90
2017-12-20T06:22:56.829Z,99.90
2017-12-20T06:25:24.512Z,99.90
2017-12-20T06:27:52.157Z,99.90
2017-12-20T06:30:19.876Z,99.90
2017-12-20T06:32:47.851Z,99.90
2017-12-20T06:35:15.477Z,99.90
2017-12-20T06:37:43.106Z,99.90
2017-12-20T06:40:10.758Z,99.90
2017-12-20T06:42:38.419Z,99.90
2017-12-20T06:45:06.258Z,99.90
2017-12-20T06:47:34.820Z,99.90
2017-12-20T06:50:02.438Z,99.90
2017-12-20T06:52:30.108Z,99.90
2017-12-20T06:54:57.760Z,99.90
2017-12-20T06:57:25.409Z,99.90
2017-12-20T06:59:53.027Z,99.90
2017-12-20T07:02:21.417Z,99.90
2017-12-20T07:04:49.075Z,99.90
2017-12-20T07:07:16.732Z,99.90
2017-12-20T07:09:44.401Z,99.90
2017-12-20T07:12:12.017Z,99.90
2017-12-20T07:14:39.634Z,99.90
2017-12-20T07:17:08.109Z,99.90
2017-12-20T07:19:35.746Z,99.90
2017-12-20T07:22:04.170Z,99.90
2017-12-20T07:24:31.812Z,99.90
2017-12-20T07:26:59.462Z,99.90
2017-12-20T07:29:27.175Z,99.90
2017-12-20T07:31:54.790Z,99.90
2017-12-20T07:34:23.226Z,99.90
2017-12-20T07:36:51.107Z,99.90
2017-12-20T07:39:19.510Z,99.90
2017-12-20T07:41:47.199Z,99.90
2017-12-20T07:44:14.817Z,99.90
2017-12-20T07:46:42.466Z,99.90
2017-12-20T07:49:10.087Z,99.90
2017-12-20T07:51:37.768Z,99.90
2017-12-20T07:54:05.435Z,99.90
2017-12-20T07:56:33.046Z,99.90
2017-12-20T07:59:00.756Z,99.90
2017-12-20T08:01:29.726Z,99.90
2017-12-20T08:03:58.109Z,99.90
2017-12-20T08:06:25.811Z,99.90
2017-12-20T08:08:53.448Z,99.90
2017-12-20T08:11:21.093Z,99.90
2017-12-20T08:13:48.758Z,99.90
2017-12-20T08:16:16.411Z,99.90
2017-12-20T08:18:44.058Z,99.90
2017-12-20T08:21:11.686Z,99.90
2017-12-20T08:23:39.346Z,99.90
2017-12-20T08:26:08.035Z,99.90
2017-12-20T08:28:36.493Z,99.90
2017-12-20T08:31:04.941Z,99.90
2017-12-20T08:33:32.574Z,99.90
2017-12-20T08:36:00.238Z,99.90
2017-12-20T08:38:27.865Z,99.90
2017-12-20T08:40:55.486Z,99.90
2017-12-20T08:43:23.145Z,99.90
2017-12-20T08:45:50.757Z,99.90
2017-12-20T08:48:19.188Z,99.90
2017-12-20T08:50:46.845Z,99.90
2017-12-20T08:53:14.492Z,99.90
2017-12-20T08:55:42.141Z,99.90
2017-12-20T08:58:09.758Z,99.90
2017-12-20T09:00:37.410Z,99.90
2017-12-20T09:03:05.031Z,99.90
2017-12-20T09:05:32.653Z,99.90
2017-12-20T09:08:00.309Z,99.90
2017-12-20T09:10:28.012Z,99.90
2017-12-20T09:12:55.659Z,99.90
2017-12-20T09:15:23.289Z,99.90
2017-12-20T09:17:50.918Z,99.90
2017-12-20T09:20:18.590Z,99.90
2017-12-20T09:22:46.242Z,99.90
2017-12-20T09:25:13.903Z,99.90
2017-12-20T09:27:41.533Z,99.90
2017-12-20T09:30:09.145Z,99.90
2017-12-20T09:32:36.909Z,99.90
2017-12-20T09:35:04.531Z,99.90
2017-12-20T09:37:32.228Z,99.90
2017-12-20T09:39:59.825Z,99.90
2017-12-20T09:42:27.441Z,99.90
2017-12-20T09:44:55.849Z,99.90
2017-12-20T09:47:24.366Z,99.90
2017-12-20T09:49:52.797Z,99.90
2017-12-20T09:52:20.417Z,99.90
2017-12-20T09:54:48.118Z,99.90
2017-12-20T09:57:15.766Z,99.90
2017-12-20T09:59:43.385Z,99.90
2017-12-20T10:02:11.054Z,99.90
2017-12-20T10:04:38.666Z,99.90
2017-12-20T10:07:06.294Z,99.90
2017-12-20T10:09:33.934Z,99.90
2017-12-20T10:12:01.566Z,99.90
2017-12-20T10:14:29.222Z,99.90
2017-12-20T10:16:57.005Z,99.90
2017-12-20T10:19:24.625Z,99.90
2017-12-20T10:21:52.281Z,99.90
2017-12-20T10:24:19.910Z,99.90
2017-12-20T10:26:47.630Z,99.90
2017-12-20T10:29:15.252Z,99.90
2017-12-20T10:31:42.959Z,99.90
2017-12-20T10:34:10.610Z,99.90
2017-12-20T10:36:38.217Z,99.90
2017-12-20T10:39:06.699Z,99.90
2017-12-20T10:41:35.082Z,99.90
2017-12-20T10:44:02.707Z,99.90
2017-12-20T10:46:31.136Z,99.90
2017-12-20T10:48:58.825Z,99.90
2017-12-20T10:51:26.557Z,99.90
2017-12-20T10:53:54.963Z,99.90
2017-12-20T10:56:22.581Z,99.90
2017-12-20T10:58:50.236Z,99.90
2017-12-20T11:01:17.877Z,99.90
2017-12-20T11:03:45.537Z,99.90
2017-12-20T11:06:13.152Z,99.90
2017-12-20T11:08:40.782Z,99.90
2017-12-20T11:11:08.440Z,99.90
2017-12-20T11:13:36.091Z,99.90
2017-12-20T11:16:03.790Z,99.90
2017-12-20T11:18:31.407Z,99.90
2017-12-20T11:20:59.019Z,99.90
2017-12-20T11:23:26.705Z,99.90
2017-12-20T11:25:54.317Z,99.90
2017-12-20T11:28:21.969Z,99.90
2017-12-20T11:30:50.357Z,99.90
2017-12-20T11:33:18.006Z,99.90
2017-12-20T11:35:45.657Z,99.90
2017-12-20T11:38:13.282Z,99.90
2017-12-20T11:40:41.718Z,99.90
2017-12-20T11:43:09.351Z,99.90
2017-12-20T11:45:37.015Z,99.90
2017-12-20T11:48:04.673Z,99.90
2017-12-20T11:50:32.296Z,99.90
2017-12-20T11:52:59.946Z,99.90
2017-12-20T11:55:27.580Z,99.90
2017-12-20T11:57:55.211Z,99.90
2017-12-20T12:00:22.865Z,99.90
2017-12-20T12:02:50.495Z,99.90
2017-12-20T12:05:18.153Z,99.90
2017-12-20T12:07:45.793Z,99.90
2017-12-20T12:10:13.415Z,99.90
2017-12-20T12:12:41.665Z,99.90
2017-12-20T12:15:10.049Z,99.90
2017-12-20T12:17:37.694Z,99.90
2017-12-20T12:20:05.307Z,99.90
2017-12-20T12:22:32.930Z,99.90
2017-12-20T12:25:00.577Z,99.90
2017-12-20T12:27:28.199Z,99.90
2017-12-20T12:29:55.864Z,99.90
2017-12-20T12:32:23.524Z,97.50
2017-12-20T12:34:51.134Z,95.40
2017-12-20T12:37:18.841Z,95.60
2017-12-20T12:39:47.228Z,96.80
2017-12-20T12:42:14.902Z,96.10
2017-12-20T12:44:42.545Z,96.70
2017-12-20T12:47:10.164Z,96.00
2017-12-20T12:49:37.886Z,95.40
2017-12-20T12:52:06.317Z,96.90
2017-12-20T12:54:34.000Z,97.00
2017-12-20T12:57:02.425Z,95.70
2017-12-20T12:59:30.050Z,95.70
2017-12-20T13:01:57.751Z,95.50
2017-12-20T13:04:25.378Z,96.20
2017-12-20T13:06:53.047Z,92.50
2017-12-20T13:09:20.665Z,93.50
2017-12-20T13:11:48.283Z,93.10
2017-12-20T13:14:16.121Z,93.40
2017-12-20T13:16:43.791Z,94.00
2017-12-20T13:19:11.448Z,94.70
2017-12-20T13:21:39.068Z,93.90
2017-12-20T13:24:06.717Z,93.80
2017-12-20T13:26:34.378Z,93.80
2017-12-20T13:29:01.994Z,96.10
2017-12-20T13:31:30.406Z,98.50
2017-12-20T13:33:58.146Z,98.50
2017-12-20T13:36:25.792Z,99.00
2017-12-20T13:38:53.434Z,99.30
2017-12-20T13:41:21.098Z,99.40
2017-12-20T13:43:48.761Z,99.90
2017-12-20T13:46:16.414Z,99.90
2017-12-20T13:48:44.062Z,99.90
2017-12-20T13:51:11.702Z,99.90
2017-12-20T13:53:39.322Z,99.90
2017-12-20T13:56:07.038Z,99.90
2017-12-20T13:58:34.670Z,99.90
2017-12-20T14:01:03.090Z,99.90
2017-12-20T14:03:30.783Z,99.90
2017-12-20T14:05:59.171Z,99.50
2017-12-20T14:08:26.914Z,99.40
2017-12-20T14:10:54.526Z,99.30
2017-12-20T14:13:23.542Z,99.30
2017-12-20T14:15:51.186Z,98.70
2017-12-20T14:18:18.814Z,99.20
2017-12-20T14:20:47.240Z,99.40
2017-12-20T14:23:14.870Z,99.40
2017-12-20T14:25:42.495Z,99.20
2017-12-20T14:28:10.134Z,99.00
2017-12-20T14:30:37.756Z,99.60
2017-12-20T14:33:06.205Z,99.90
2017-12-20T14:35:33.823Z,99.90
2017-12-20T14:38:01.442Z,99.90
2017-12-20T14:40:29.094Z,99.90
2017-12-20T14:42:56.787Z,99.90
2017-12-20T14:45:24.446Z,99.90
2017-12-20T14:47:52.846Z,99.90
2017-12-20T14:50:20.486Z,99.90
2017-12-20T14:52:48.146Z,99.90
2017-12-20T14:55:15.779Z,99.90
2017-12-20T14:57:43.443Z,99.90
2017-12-20T15:00:11.090Z,99.90
2017-12-20T15:02:38.731Z,99.90
2017-12-20T15:05:06.455Z,99.90
2017-12-20T15:07:34.735Z,99.90
2017-12-20T15:10:03.234Z,99.90
2017-12-20T15:12:31.255Z,99.90
2017-12-20T15:14:58.877Z,99.90
2017-12-20T15:17:33.172Z,99.90
2017-12-20T15:20:02.356Z,99.90
2017-12-20T15:22:33.882Z,99.90
2017-12-20T15:25:01.501Z,99.90
2017-12-20T15:27:29.127Z,99.90
2017-12-20T15:29:56.994Z,99.90
2017-12-20T15:32:24.623Z,99.90
2017-12-20T15:34:52.290Z,99.90
2017-12-20T15:37:19.918Z,99.90
2017-12-20T15:39:47.718Z,99.90
2017-12-20T15:42:15.378Z,99.90
2017-12-20T15:44:43.781Z,99.90
2017-12-20T15:47:11.444Z,99.90
2017-12-20T15:49:39.078Z,99.90
2017-12-20T15:52:06.743Z,99.90
2017-12-20T15:54:34.475Z,99.90
2017-12-20T15:57:02.109Z,99.90
2017-12-20T15:59:29.777Z,99.90
2017-12-20T16:01:58.458Z,99.90
2017-12-20T16:04:26.118Z,99.90
2017-12-20T16:06:53.967Z,99.90
2017-12-20T16:09:21.628Z,99.90
2017-12-20T16:11:49.293Z,99.90
2017-12-20T16:14:18.093Z,99.90
2017-12-20T16:16:45.732Z,99.90
2017-12-20T16:19:13.381Z,99.90
2017-12-20T16:21:41.001Z,99.90
2017-12-20T16:24:09.422Z,99.90
2017-12-20T16:26:37.122Z,99.90
2017-12-20T16:29:04.737Z,99.90
2017-12-20T16:31:32.398Z,99.90
2017-12-20T16:34:01.643Z,99.90
2017-12-20T16:36:29.302Z,99.90
2017-12-20T16:38:57.045Z,99.90
2017-12-20T16:41:24.683Z,99.90
2017-12-20T16:43:52.346Z,99.90
2017-12-20T16:46:19.966Z,99.90
2017-12-20T16:48:56.712Z,99.90
2017-12-20T16:51:30.662Z,99.90
2017-12-20T16:53:58.693Z,99.90
2017-12-20T16:56:34.976Z,99.90
2017-12-20T16:59:08.148Z,99.90
2017-12-20T17:01:41.062Z,99.90
2017-12-20T17:04:18.406Z,99.90
2017-12-20T17:06:48.401Z,99.90
2017-12-20T17:09:16.988Z,99.90
2017-12-20T17:11:44.623Z,99.90
2017-12-20T17:14:13.021Z,99.90
2017-12-20T17:16:40.692Z,99.90
2017-12-20T17:19:08.395Z,99.90
2017-12-20T17:21:36.090Z,99.90
2017-12-20T17:24:04.539Z,99.90
2017-12-20T17:26:32.178Z,99.90
2017-12-20T17:28:59.838Z,99.90
2017-12-20T17:31:27.725Z,99.90
2017-12-20T17:33:55.379Z,99.90
2017-12-20T17:36:23.865Z,99.90
2017-12-20T17:38:51.514Z,99.90
2017-12-20T17:41:19.172Z,99.90
2017-12-20T17:43:47.372Z,99.90
2017-12-20T17:46:15.142Z,99.90
2017-12-20T17:48:42.771Z,99.90
2017-12-20T17:51:10.473Z,99.90
2017-12-20T17:53:39.034Z,99.90
2017-12-20T17:56:06.771Z,99.90
2017-12-20T17:58:34.439Z,99.90
2017-12-20T18:01:09.788Z,99.90
2017-12-20T18:03:37.647Z,99.90
2017-12-20T18:06:05.309Z,99.90
2017-12-20T18:08:32.967Z,99.90
2017-12-20T18:11:01.012Z,99.90
2017-12-20T18:13:29.698Z,99.90
2017-12-20T18:16:00.849Z,99.90
2017-12-20T18:18:29.530Z,99.90
2017-12-20T18:20:58.236Z,99.90
2017-12-20T18:23:26.624Z,99.90
2017-12-20T18:25:54.283Z,99.90
2017-12-20T18:28:22.882Z,99.90
2017-12-20T18:30:50.507Z,99.90
2017-12-20T18:33:18.926Z,99.90
2017-12-20T18:35:47.850Z,99.90
2017-12-20T18:38:15.494Z,99.90
2017-12-20T18:40:43.939Z,99.90
2017-12-20T18:43:11.574Z,99.90
2017-12-20T18:45:39.229Z,99.90
2017-12-20T18:48:07.101Z,99.90
2017-12-20T18:50:35.485Z,99.90
2017-12-20T18:53:03.153Z,99.90
2017-12-20T18:55:30.909Z,99.90
2017-12-20T18:57:58.593Z,99.90
2017-12-20T19:00:27.256Z,99.90
2017-12-20T19:02:54.970Z,99.90
2017-12-20T19:05:22.656Z,99.90
2017-12-20T19:07:50.351Z,99.90
2017-12-20T19:10:18.159Z,99.90
2017-12-20T19:12:46.648Z,99.90
2017-12-20T19:15:14.298Z,99.90
2017-12-20T19:17:41.958Z,99.90
2017-12-20T19:20:09.599Z,99.90
2017-12-20T19:22:37.305Z,99.90
2017-12-20T19:25:05.021Z,99.90
2017-12-20T19:27:32.652Z,99.90
2017-12-20T19:30:00.346Z,99.90
2017-12-20T19:32:28.070Z,99.90
2017-12-20T19:34:55.755Z,99.90
2017-12-20T19:37:24.146Z,99.90
2017-12-20T19:39:51.777Z,99.90
2017-12-20T19:42:19.522Z,99.90
2017-12-20T19:44:48.103Z,99.90
2017-12-20T19:47:15.787Z,99.90
2017-12-20T19:49:44.094Z,99.90
2017-12-20T19:52:13.414Z,99.90
2017-12-20T19:54:41.715Z,99.90
2017-12-20T19:57:35.706Z,99.90
2017-12-20T20:00:05.426Z,99.90
2017-12-20T20:02:34.128Z,99.90
2017-12-20T20:05:02.684Z,99.90
2017-12-20T20:07:31.470Z,99.90
2017-12-20T20:09:59.122Z,99.90
2017-12-20T20:12:29.882Z,99.90
2017-12-20T20:15:00.301Z,99.90
2017-12-20T20:17:29.357Z,99.90
2017-12-20T20:20:00.405Z,99.90
2017-12-20T20:22:30.359Z,99.90
2017-12-20T20:24:59.978Z,99.90
2017-12-20T20:27:37.202Z,99.90
2017-12-20T20:30:04.840Z,99.90
2017-12-20T20:32:33.175Z,99.90
2017-12-20T20:35:00.863Z,99.90
2017-12-20T20:37:28.560Z,99.90
2017-12-20T20:39:56.445Z,99.90
2017-12-20T20:42:24.154Z,99.90
2017-12-20T20:44:52.570Z,99.90
2017-12-20T20:47:21.543Z,99.90
2017-12-20T20:49:49.183Z,99.90
2017-12-20T20:52:17.041Z,99.90
2017-12-20T20:54:44.665Z,99.90
2017-12-20T20:57:13.079Z,99.90
2017-12-20T20:59:45.767Z,99.90
2017-12-20T21:02:13.408Z,99.90
2017-12-20T21:04:41.981Z,99.90
2017-12-20T21:07:09.635Z,99.90
2017-12-20T21:09:37.274Z,99.90
2017-12-20T21:12:04.941Z,99.90
2017-12-20T21:14:34.723Z,99.90
2017-12-20T21:17:03.224Z,99.90
2017-12-20T21:19:32.094Z,99.90
2017-12-20T21:22:01.626Z,99.90
2017-12-20T21:24:29.501Z,99.90
2017-12-20T21:26:57.162Z,99.90
2017-12-20T21:29:25.613Z,99.90
2017-12-20T21:31:55.410Z,99.90
2017-12-20T21:34:23.042Z,99.90
2017-12-20T21:36:50.723Z,99.90
2017-12-20T21:39:20.559Z,99.90
2017-12-20T21:41:48.553Z,99.90
2017-12-20T21:44:16.238Z,99.90
2017-12-20T21:46:43.873Z,99.90
2017-12-20T21:49:13.352Z,99.90
2017-12-20T21:51:41.766Z,99.90
2017-12-20T21:54:09.422Z,99.90
2017-12-20T21:56:37.136Z,99.90
2017-12-20T21:59:06.783Z,99.90
2017-12-20T22:01:34.442Z,99.90
2017-12-20T22:04:02.086Z,99.90
2017-12-20T22:06:29.734Z,99.90
2017-12-20T22:08:57.570Z,99.90
2017-12-20T22:11:26.737Z,99.90
2017-12-20T22:13:54.398Z,99.90
2017-12-20T22:16:22.060Z,99.90
2017-12-20T22:18:50.517Z,99.80
2017-12-20T22:21:20.760Z,99.90
2017-12-20T22:23:48.400Z,99.40
2017-12-20T22:26:17.085Z,98.80
2017-12-20T22:28:44.723Z,98.70
2017-12-20T22:31:14.378Z,98.40
2017-12-20T22:33:42.141Z,98.70
2017-12-20T22:36:09.780Z,98.40
2017-12-20T22:38:37.641Z,98.40
2017-12-20T22:41:07.438Z,98.10
2017-12-20T22:43:35.124Z,98.50
2017-12-20T22:46:02.758Z,99.10
2017-12-20T22:48:30.770Z,99.20
2017-12-20T22:50:58.437Z,99.30
2017-12-20T22:53:26.246Z,99.40
2017-12-20T22:55:53.933Z,99.90
2017-12-20T22:58:22.391Z,99.90
2017-12-20T23:00:50.150Z,99.90
2017-12-20T23:03:18.017Z,99.60
2017-12-20T23:05:46.585Z,99.90
2017-12-20T23:08:14.246Z,99.90
2017-12-20T23:10:41.878Z,99.40
2017-12-20T23:13:10.358Z,99.00
2017-12-20T23:15:38.109Z,99.00
2017-12-20T23:18:05.762Z,98.70
2017-12-20T23:20:33.433Z,99.00
2017-12-20T23:23:01.062Z,99.30
2017-12-20T23:25:28.703Z,99.40
2017-12-20T23:27:56.404Z,99.50
2017-12-20T23:30:24.039Z,99.90
2017-12-20T23:32:51.718Z,99.90
2017-12-20T23:35:19.366Z,99.70
2017-12-20T23:37:47.950Z,99.30
2017-12-20T23:40:15.618Z,99.30
2017-12-20T23:42:43.246Z,99.40
2017-12-20T23:45:10.914Z,99.90
2017-12-20T23:47:38.572Z,99.30
2017-12-20T23:50:06.251Z,99.10
2017-12-20T23:52:33.920Z,99.20
2017-12-20T23:55:02.324Z,98.60
2017-12-20T23:57:29.986Z,98.60
